createdAt,value
2018-07-31T00:01:29.637Z,20.80
2018-07-31T00:04:28.148Z,19.53
2018-07-31T00:07:26.620Z,19.30
2018-07-31T00:10:24.897Z,21.27
2018-07-31T00:13:23.578Z,21.67
2018-07-31T00:16:23.266Z,21.47
2018-07-31T00:19:21.914Z,21.13
2018-07-31T00:22:21.424Z,23.03
2018-07-31T00:25:19.473Z,21.47
2018-07-31T00:28:18.160Z,21.67
2018-07-31T00:31:16.267Z,23.03
2018-07-31T00:34:14.883Z,20.47
2018-07-31T00:37:13.137Z,21.70
2018-07-31T00:40:12.454Z,21.53
2018-07-31T00:43:10.764Z,21.40
2018-07-31T00:46:08.972Z,20.57
2018-07-31T00:49:08.852Z,21.63
2018-07-31T00:52:07.132Z,21.67
2018-07-31T00:55:05.176Z,20.63
2018-07-31T00:58:04.684Z,24.77
2018-07-31T01:01:03.966Z,24.63
2018-07-31T01:04:02.348Z,24.40
2018-07-31T01:07:00.517Z,22.90
2018-07-31T01:09:58.155Z,23.60
2018-07-31T01:12:56.547Z,22.40
2018-07-31T01:15:55.360Z,26.80
2018-07-31T01:18:53.462Z,22.07
2018-07-31T01:21:53.131Z,23.33
2018-07-31T01:24:51.715Z,22.83
2018-07-31T01:27:50.872Z,22.70
2018-07-31T01:30:49.167Z,23.70
2018-07-31T01:33:47.665Z,23.43
2018-07-31T01:36:46.008Z,23.07
2018-07-31T01:39:44.070Z,25.00
2018-07-31T01:42:42.376Z,23.43
2018-07-31T01:45:40.350Z,22.60
2018-07-31T01:48:39.770Z,25.03
2018-07-31T01:51:38.151Z,24.80
2018-07-31T01:54:36.528Z,24.57
2018-07-31T01:57:34.393Z,24.67
2018-07-31T02:00:33.388Z,24.60
2018-07-31T02:03:31.840Z,23.27
2018-07-31T02:06:34.291Z,24.97
2018-07-31T02:09:33.129Z,26.67
2018-07-31T02:12:31.241Z,25.57
2018-07-31T02:15:29.627Z,28.03
2018-07-31T02:18:27.952Z,27.43
2018-07-31T02:21:26.239Z,26.40
2018-07-31T02:24:25.509Z,26.83
2018-07-31T02:27:23.789Z,28.10
2018-07-31T02:30:29.289Z,28.47
2018-07-31T02:33:27.512Z,28.20
2018-07-31T02:36:25.615Z,26.47
2018-07-31T02:39:23.838Z,27.33
2018-07-31T02:42:21.900Z,27.73
2018-07-31T02:45:23.115Z,27.53
2018-07-31T02:48:22.388Z,28.80
2018-07-31T02:51:20.464Z,30.00
2018-07-31T02:54:18.910Z,32.70
2018-07-31T02:57:17.485Z,30.23
2018-07-31T03:00:16.566Z,34.33
2018-07-31T03:03:14.988Z,27.27
2018-07-31T03:06:13.098Z,33.33
2018-07-31T03:09:12.487Z,24.73
2018-07-31T03:12:10.948Z,25.17
2018-07-31T03:15:09.325Z,25.90
2018-07-31T03:18:07.799Z,27.83
2018-07-31T03:21:07.116Z,27.43
2018-07-31T03:24:06.521Z,26.87
2018-07-31T03:27:04.840Z,28.70
2018-07-31T03:30:02.888Z,32.13
2018-07-31T03:33:00.923Z,31.73
2018-07-31T03:35:59.953Z,30.03
2018-07-31T03:38:57.996Z,33.87
2018-07-31T03:41:56.466Z,31.80
2018-07-31T03:44:55.748Z,32.10
2018-07-31T03:47:55.030Z,30.37
2018-07-31T03:50:53.196Z,29.43
2018-07-31T03:53:51.340Z,29.33
2018-07-31T03:56:49.594Z,29.57
2018-07-31T03:59:47.564Z,32.50
2018-07-31T04:02:45.780Z,28.53
2018-07-31T04:05:44.005Z,32.77
2018-07-31T04:08:42.355Z,32.97
2018-07-31T04:11:41.282Z,35.43
2018-07-31T04:14:39.604Z,29.03
2018-07-31T04:17:41.045Z,30.83
2018-07-31T04:20:39.287Z,33.63
2018-07-31T04:23:38.693Z,33.10
2018-07-31T04:26:36.771Z,37.63
2018-07-31T04:29:35.321Z,35.97
2018-07-31T04:32:33.704Z,37.73
2018-07-31T04:35:31.964Z,38.37
2018-07-31T04:38:30.149Z,41.40
2018-07-31T04:41:28.290Z,30.77
2018-07-31T04:44:28.729Z,30.70
2018-07-31T04:47:27.989Z,34.17
2018-07-31T04:50:26.476Z,34.00
2018-07-31T04:53:24.876Z,30.27
2018-07-31T04:56:24.074Z,32.30
2018-07-31T04:59:23.873Z,32.37
2018-07-31T05:02:22.509Z,30.50
2018-07-31T05:05:20.441Z,31.10
2018-07-31T05:08:18.878Z,30.67
2018-07-31T05:11:16.999Z,32.13
2018-07-31T05:14:17.402Z,26.40
2018-07-31T05:17:15.768Z,26.53
2018-07-31T05:20:15.159Z,24.87
2018-07-31T05:23:14.532Z,28.87
2018-07-31T05:26:12.766Z,32.17
2018-07-31T05:29:12.401Z,26.93
2018-07-31T05:32:10.879Z,30.80
2018-07-31T05:35:10.479Z,25.30
2018-07-31T05:38:08.710Z,22.17
2018-07-31T05:41:07.265Z,23.47
2018-07-31T05:44:06.465Z,27.70
2018-07-31T05:47:04.217Z,24.00
2018-07-31T05:50:02.870Z,24.87
2018-07-31T05:53:00.881Z,22.80
2018-07-31T05:55:59.032Z,18.60
2018-07-31T05:59:00.508Z,21.10
2018-07-31T06:01:59.045Z,20.07
2018-07-31T06:04:57.278Z,19.00
2018-07-31T06:07:55.480Z,21.67
2018-07-31T06:10:54.836Z,18.03
2018-07-31T06:13:53.427Z,21.90
2018-07-31T06:16:51.676Z,25.60
2018-07-31T06:19:49.872Z,17.10
2018-07-31T06:22:49.019Z,19.70
2018-07-31T06:25:47.339Z,15.27
2018-07-31T06:28:45.572Z,16.43
2018-07-31T06:31:43.724Z,16.87
2018-07-31T06:34:42.105Z,17.80
2018-07-31T06:37:41.394Z,15.90
2018-07-31T06:40:39.638Z,19.40
2018-07-31T06:43:37.969Z,14.13
2018-07-31T06:46:38.311Z,15.37
2018-07-31T06:49:36.692Z,13.90
2018-07-31T06:52:35.565Z,13.40
2018-07-31T06:55:33.752Z,19.33
2018-07-31T06:58:32.302Z,14.97
2018-07-31T07:01:30.477Z,13.93
2018-07-31T07:04:29.639Z,19.37
2018-07-31T07:07:28.567Z,16.70
2018-07-31T07:10:26.671Z,15.63
2018-07-31T07:13:25.996Z,14.83
2018-07-31T07:16:24.662Z,18.93
2018-07-31T07:19:23.140Z,14.93
2018-07-31T07:22:22.404Z,14.03
2018-07-31T07:25:20.743Z,19.13
2018-07-31T07:28:18.720Z,15.60
2018-07-31T07:31:17.122Z,13.73
2018-07-31T07:34:16.364Z,10.87
2018-07-31T07:37:14.665Z,14.57
2018-07-31T07:40:14.279Z,11.97
2018-07-31T07:43:12.412Z,12.30
2018-07-31T07:46:10.560Z,12.13
2018-07-31T07:49:10.736Z,10.97
2018-07-31T07:52:09.872Z,11.43
2018-07-31T07:55:08.029Z,13.47
2018-07-31T07:58:06.293Z,10.13
2018-07-31T08:01:06.511Z,16.13
2018-07-31T08:04:05.306Z,15.90
2018-07-31T08:07:03.343Z,10.53
2018-07-31T08:10:01.493Z,12.50
2018-07-31T08:13:00.483Z,12.97
2018-07-31T08:16:05.907Z,10.53
2018-07-31T08:19:04.701Z,12.77
2018-07-31T08:22:03.144Z,14.37
2018-07-31T08:25:01.225Z,10.20
2018-07-31T08:27:59.309Z,10.67
2018-07-31T08:30:58.341Z,12.33
2018-07-31T08:33:56.675Z,11.80
2018-07-31T08:36:54.981Z,12.03
2018-07-31T08:39:52.928Z,13.67
2018-07-31T08:42:52.153Z,12.13
2018-07-31T08:45:50.605Z,12.57
2018-07-31T08:48:48.589Z,11.10
2018-07-31T08:51:46.596Z,12.60
2018-07-31T08:54:44.993Z,12.73
2018-07-31T08:57:44.280Z,13.00
2018-07-31T09:00:42.961Z,14.13
2018-07-31T09:03:40.890Z,16.40
2018-07-31T09:06:39.387Z,13.47
2018-07-31T09:09:39.171Z,13.87
2018-07-31T09:12:37.657Z,31.30
2018-07-31T09:15:36.334Z,16.10
2018-07-31T09:18:35.684Z,13.30
2018-07-31T09:21:34.166Z,14.73
2018-07-31T09:24:32.509Z,16.37
2018-07-31T09:27:30.803Z,10.63
2018-07-31T09:30:28.874Z,11.63
2018-07-31T09:33:27.424Z,15.90
2018-07-31T09:36:26.063Z,12.87
2018-07-31T09:39:31.238Z,14.40
2018-07-31T09:42:29.659Z,12.37
2018-07-31T09:45:27.604Z,11.23
2018-07-31T09:48:27.081Z,12.97
2018-07-31T09:51:25.093Z,13.13
2018-07-31T09:54:23.337Z,12.67
2018-07-31T09:57:21.264Z,10.13
2018-07-31T10:00:24.373Z,14.30
2018-07-31T10:03:22.757Z,13.20
2018-07-31T10:06:21.769Z,10.97
2018-07-31T10:09:22.687Z,11.77
2018-07-31T10:12:21.168Z,21.35
2018-07-31T10:15:19.127Z,11.57
2018-07-31T10:18:17.361Z,14.98
2018-07-31T10:21:15.423Z,10.82
2018-07-31T10:24:13.513Z,14.10
2018-07-31T10:27:11.764Z,17.53
2018-07-31T10:30:10.125Z,18.40
2018-07-31T10:33:08.836Z,17.27
2018-07-31T10:36:07.744Z,15.03
2018-07-31T10:39:06.454Z,11.48
2018-07-31T10:42:05.541Z,11.63
2018-07-31T10:45:03.604Z,12.30
2018-07-31T10:48:01.883Z,10.18
2018-07-31T10:50:59.750Z,13.72
2018-07-31T10:53:58.305Z,11.55
2018-07-31T10:56:57.917Z,14.03
2018-07-31T10:59:55.685Z,11.20
2018-07-31T11:02:54.113Z,17.10
2018-07-31T11:05:52.333Z,11.20
2018-07-31T11:08:50.428Z,10.55
2018-07-31T11:11:49.459Z,14.00
2018-07-31T11:14:47.784Z,10.65
2018-07-31T11:17:45.800Z,10.13
2018-07-31T11:20:44.857Z,11.53
2018-07-31T11:23:43.059Z,12.70
2018-07-31T11:26:41.127Z,10.85
2018-07-31T11:29:39.941Z,11.33
2018-07-31T11:32:38.116Z,12.45
2018-07-31T11:35:36.568Z,11.45
2018-07-31T11:38:35.463Z,9.30
2018-07-31T11:41:33.530Z,8.75
2018-07-31T11:44:32.623Z,9.10
2018-07-31T11:47:33.304Z,14.30
2018-07-31T11:50:31.660Z,12.63
2018-07-31T11:53:29.577Z,15.08
2018-07-31T11:56:27.374Z,10.75
2018-07-31T11:59:25.651Z,23.60
2018-07-31T12:02:26.459Z,14.33
2018-07-31T12:05:26.857Z,10.35
2018-07-31T12:08:26.166Z,16.48
2018-07-31T12:11:24.674Z,16.20
2018-07-31T12:14:23.698Z,14.10
2018-07-31T12:17:21.983Z,8.00
2018-07-31T12:20:20.866Z,11.88
2018-07-31T12:23:18.586Z,16.90
2018-07-31T12:26:16.968Z,9.70
2018-07-31T12:29:15.251Z,9.33
2018-07-31T12:32:13.303Z,22.60
2018-07-31T12:35:11.152Z,12.25
2018-07-31T12:38:09.530Z,12.30
2018-07-31T12:41:07.592Z,10.72
2018-07-31T12:44:06.980Z,8.90
2018-07-31T12:47:05.248Z,8.85
2018-07-31T12:50:04.553Z,10.28
2018-07-31T12:53:02.800Z,8.53
2018-07-31T12:56:02.051Z,8.65
2018-07-31T12:59:00.884Z,9.08
2018-07-31T13:01:59.322Z,10.68
2018-07-31T13:04:57.689Z,10.15
2018-07-31T13:07:55.472Z,9.33
2018-07-31T13:10:53.620Z,8.50
2018-07-31T13:13:51.654Z,12.88
2018-07-31T13:16:49.627Z,7.67
2018-07-31T13:19:48.688Z,7.45
2018-07-31T13:22:46.709Z,8.85
2018-07-31T13:25:46.537Z,6.45
2018-07-31T13:28:44.272Z,13.98
2018-07-31T13:31:42.560Z,9.28
2018-07-31T13:34:40.900Z,9.90
2018-07-31T13:37:38.886Z,6.28
2018-07-31T13:40:37.377Z,7.85
2018-07-31T13:43:35.865Z,7.60
2018-07-31T13:46:34.352Z,7.47
2018-07-31T13:49:33.713Z,6.78
2018-07-31T13:52:31.775Z,5.35
2018-07-31T13:55:29.941Z,8.03
2018-07-31T13:58:27.992Z,7.15
2018-07-31T14:01:26.578Z,9.80
2018-07-31T14:04:25.265Z,10.60
2018-07-31T14:07:23.473Z,6.75
2018-07-31T14:10:21.709Z,7.12
2018-07-31T14:13:19.644Z,8.38
2018-07-31T14:16:17.897Z,8.55
2018-07-31T14:19:16.093Z,9.50
2018-07-31T14:22:15.462Z,8.18
2018-07-31T14:25:13.895Z,6.92
2018-07-31T14:28:11.975Z,9.15
2018-07-31T14:31:09.913Z,8.75
2018-07-31T14:34:09.156Z,6.33
2018-07-31T14:37:07.374Z,11.48
2018-07-31T14:40:05.552Z,6.25
2018-07-31T14:43:03.984Z,6.28
2018-07-31T14:46:10.406Z,6.10
2018-07-31T14:49:09.268Z,8.70
2018-07-31T14:52:07.902Z,5.60
2018-07-31T14:55:06.580Z,9.13
2018-07-31T14:58:06.307Z,9.08
2018-07-31T15:01:04.442Z,9.13
2018-07-31T15:04:03.850Z,10.63
2018-07-31T15:07:02.297Z,8.65
2018-07-31T15:10:00.730Z,13.85
2018-07-31T15:12:59.401Z,7.97
2018-07-31T15:15:58.182Z,8.63
2018-07-31T15:18:56.312Z,7.20
2018-07-31T15:21:55.033Z,8.15
2018-07-31T15:24:53.256Z,9.68
2018-07-31T15:27:51.815Z,7.03
2018-07-31T15:30:50.472Z,6.85
2018-07-31T15:33:48.540Z,8.70
2018-07-31T15:36:46.970Z,9.20
2018-07-31T15:39:45.302Z,10.48
2018-07-31T15:42:43.621Z,6.03
2018-07-31T15:45:41.584Z,8.40
2018-07-31T15:48:41.408Z,8.70
2018-07-31T15:51:40.913Z,6.50
2018-07-31T15:54:40.664Z,7.62
2018-07-31T15:57:39.084Z,6.33
2018-07-31T16:00:38.202Z,7.37
2018-07-31T16:03:36.861Z,8.83
2018-07-31T16:06:35.399Z,8.70
2018-07-31T16:09:35.137Z,6.97
2018-07-31T16:12:34.330Z,9.13
2018-07-31T16:15:32.848Z,6.50
2018-07-31T16:18:31.374Z,9.03
2018-07-31T16:21:29.446Z,6.40
2018-07-31T16:24:27.596Z,6.28
2018-07-31T16:27:25.912Z,6.30
2018-07-31T16:30:24.985Z,5.62
2018-07-31T16:33:23.322Z,9.48
2018-07-31T16:36:21.484Z,5.42
2018-07-31T16:39:21.500Z,6.47
2018-07-31T16:42:19.618Z,7.33
2018-07-31T16:45:17.712Z,7.15
2018-07-31T16:48:17.191Z,6.17
2018-07-31T16:51:16.075Z,6.78
2018-07-31T16:54:14.244Z,7.45
2018-07-31T16:57:12.320Z,7.70
2018-07-31T17:00:11.633Z,6.12
2018-07-31T17:03:09.785Z,8.60
2018-07-31T17:06:08.209Z,8.13
2018-07-31T17:09:07.829Z,9.33
2018-07-31T17:12:05.962Z,8.38
2018-07-31T17:15:04.240Z,8.85
2018-07-31T17:18:02.507Z,11.18
2018-07-31T17:21:02.127Z,8.95
2018-07-31T17:24:00.452Z,7.10
2018-07-31T17:26:58.918Z,8.03
2018-07-31T17:29:58.315Z,7.28
2018-07-31T17:32:56.610Z,6.72
2018-07-31T17:35:55.185Z,8.78
2018-07-31T17:38:53.758Z,10.03
2018-07-31T17:41:51.830Z,9.88
2018-07-31T17:44:50.426Z,12.60
2018-07-31T17:47:48.634Z,14.18
2018-07-31T17:50:47.119Z,11.30
2018-07-31T17:53:45.131Z,9.83
2018-07-31T17:56:43.344Z,9.78
2018-07-31T17:59:41.885Z,13.90
2018-07-31T18:02:40.528Z,8.18
2018-07-31T18:05:38.312Z,7.62
2018-07-31T18:08:36.930Z,7.60
2018-07-31T18:11:35.257Z,13.88
2018-07-31T18:14:33.867Z,19.73
2018-07-31T18:17:31.648Z,13.93
2018-07-31T18:20:32.908Z,10.68
2018-07-31T18:23:31.252Z,11.47
2018-07-31T18:26:29.277Z,13.50
2018-07-31T18:29:27.699Z,12.40
2018-07-31T18:32:26.897Z,9.40
2018-07-31T18:35:25.436Z,12.23
2018-07-31T18:38:23.850Z,15.50
2018-07-31T18:41:22.220Z,12.13
2018-07-31T18:44:20.541Z,16.43
2018-07-31T18:47:21.726Z,18.77
2018-07-31T18:50:20.904Z,15.80
2018-07-31T18:53:19.105Z,12.67
2018-07-31T18:56:17.946Z,16.50
2018-07-31T18:59:16.684Z,12.53
2018-07-31T19:02:14.980Z,16.60
2018-07-31T19:05:13.112Z,17.43
2018-07-31T19:08:11.907Z,17.87
2018-07-31T19:11:10.351Z,15.00
2018-07-31T19:14:08.536Z,14.60
2018-07-31T19:17:06.831Z,15.23
2018-07-31T19:20:06.078Z,15.27
2018-07-31T19:23:04.149Z,12.93
2018-07-31T19:26:02.715Z,14.37
2018-07-31T19:29:00.675Z,16.53
2018-07-31T19:31:58.540Z,12.13
2018-07-31T19:34:56.686Z,14.07
2018-07-31T19:37:55.319Z,18.40
2018-07-31T19:40:53.357Z,15.00
2018-07-31T19:43:52.933Z,17.73
2018-07-31T19:46:52.176Z,15.20
2018-07-31T19:49:50.876Z,14.90
2018-07-31T19:52:49.400Z,13.73
2018-07-31T19:55:47.308Z,13.63
2018-07-31T19:58:45.789Z,13.20
2018-07-31T20:01:43.872Z,17.87
2018-07-31T20:04:41.968Z,16.07
2018-07-31T20:07:41.219Z,24.03
2018-07-31T20:10:39.031Z,17.43
2018-07-31T20:13:37.064Z,15.50
2018-07-31T20:16:35.039Z,17.93
2018-07-31T20:19:33.033Z,19.73
2018-07-31T20:22:31.369Z,17.53
2018-07-31T20:25:29.649Z,17.93
2018-07-31T20:28:28.028Z,16.07
2018-07-31T20:31:25.904Z,22.43
2018-07-31T20:34:23.831Z,15.57
2018-07-31T20:37:22.150Z,15.40
2018-07-31T20:40:20.961Z,19.87
2018-07-31T20:43:20.606Z,19.63
2018-07-31T20:46:19.952Z,16.10
2018-07-31T20:49:18.633Z,18.17
2018-07-31T20:52:16.875Z,17.50
2018-07-31T20:55:15.072Z,14.87
2018-07-31T20:58:13.212Z,21.23
2018-07-31T21:01:11.209Z,16.27
2018-07-31T21:04:09.434Z,15.03
2018-07-31T21:07:07.745Z,16.80
2018-07-31T21:10:05.742Z,19.30
2018-07-31T21:13:04.035Z,15.65
2018-07-31T21:16:02.683Z,16.20
2018-07-31T21:19:01.451Z,18.77
2018-07-31T21:22:05.789Z,15.37
2018-07-31T21:25:03.867Z,18.83
2018-07-31T21:28:01.990Z,16.10
2018-07-31T21:31:01.168Z,18.90
2018-07-31T21:34:00.829Z,14.33
2018-07-31T21:36:58.892Z,14.83
2018-07-31T21:39:59.139Z,13.70
2018-07-31T21:42:57.288Z,17.77
2018-07-31T21:45:56.240Z,15.47
2018-07-31T21:48:54.352Z,16.10
2018-07-31T21:51:52.592Z,17.93
2018-07-31T21:54:52.712Z,18.97
2018-07-31T21:57:50.996Z,18.77
2018-07-31T22:00:56.216Z,17.90
2018-07-31T22:03:54.466Z,16.13
2018-07-31T22:06:53.958Z,18.70
2018-07-31T22:09:53.032Z,18.93
2018-07-31T22:12:51.088Z,17.30
2018-07-31T22:15:51.104Z,22.07
2018-07-31T22:18:49.288Z,19.63
2018-07-31T22:21:48.036Z,17.63
2018-07-31T22:24:46.420Z,17.73
2018-07-31T22:27:45.861Z,20.83
2018-07-31T22:30:44.011Z,20.43
2018-07-31T22:33:43.273Z,17.17
2018-07-31T22:36:41.332Z,27.97
2018-07-31T22:39:40.392Z,20.57
2018-07-31T22:42:38.736Z,17.83
2018-07-31T22:45:38.061Z,21.93
2018-07-31T22:48:37.453Z,20.50
2018-07-31T22:51:35.821Z,18.07
2018-07-31T22:54:35.266Z,19.30
2018-07-31T22:57:33.577Z,18.23
2018-07-31T23:00:32.546Z,23.83
2018-07-31T23:03:30.632Z,23.43
2018-07-31T23:06:30.145Z,23.83
2018-07-31T23:09:30.508Z,18.57
2018-07-31T23:12:28.435Z,19.10
2018-07-31T23:15:27.520Z,17.90
2018-07-31T23:18:25.738Z,19.97
2018-07-31T23:21:24.903Z,19.10
2018-07-31T23:24:23.964Z,19.87
2018-07-31T23:27:25.281Z,24.47
2018-07-31T23:30:23.292Z,25.10
2018-07-31T23:33:22.662Z,20.13
2018-07-31T23:36:20.925Z,19.53
2018-07-31T23:39:22.172Z,21.23
2018-07-31T23:42:21.260Z,18.23
2018-07-31T23:45:19.301Z,22.83
2018-07-31T23:48:17.496Z,20.27
2018-07-31T23:51:15.560Z,21.03
2018-07-31T23:54:14.183Z,21.80
2018-07-31T23:57:12.380Z,20.33
